sensor_id;sensor_type;location;lat;lon;timestamp;temperature;humidity
20862;DHT22;10591;52.532;13.348;2023-09-19T00:02:17;18.36;81.71
20862;DHT22;10591;52.532;13.348;2023-09-19T00:04:48;18.10;82.34
20862;DHT22;10591;52.532;13.348;2023-09-19T00:07:23;18.18;81.95
20862;DHT22;10591;52.532;13.348;2023-09-19T00:09:58;18.17;81.97
20862;DHT22;10591;52.532;13.348;2023-09-19T00:12:30;18.13;82.57
20862;DHT22;10591;52.532;13.348;2023-09-19T00:15:01;18.06;82.20
20862;DHT22;10591;52.532;13.348;2023-09-19T00:17:33;18.09;82.23
20862;DHT22;10591;52.532;13.348;2023-09-19T00:20:07;18.10;82.01
20862;DHT22;10591;52.532;13.348;2023-09-19T00:22:40;18.06;81.90
20862;DHT22;10591;52.532;13.348;2023-09-19T00:25:12;17.92;82.57
20862;DHT22;10591;52.532;13.348;2023-09-19T00:27:44;17.80;82.94
20862;DHT22;10591;52.532;13.348;2023-09-19T00:30:18;18.03;82.09
20862;DHT22;10591;52.532;13.348;2023-09-19T00:32:53;18.00;82.09
20862;DHT22;10591;52.532;13.348;2023-09-19T00:35:26;18.05;82.13
20862;DHT22;10591;52.532;13.348;2023-09-19T00:37:58;17.94;82.22
20862;DHT22;10591;52.532;13.348;2023-09-19T00:40:29;17.86;82.66
20862;DHT22;10591;52.532;13.348;2023-09-19T00:43:00;17.78;82.79
20862;DHT22;10591;52.532;13.348;2023-09-19T00:45:31;17.86;82.33
20862;DHT22;10591;52.532;13.348;2023-09-19T00:48:02;17.86;82.41
20862;DHT22;10591;52.532;13.348;2023-09-19T00:50:33;17.77;82.79
20862;DHT22;10591;52.532;13.348;2023-09-19T00:53:05;17.74;82.88
20862;DHT22;10591;52.532;13.348;2023-09-19T00:55:39;17.70;82.97
20862;DHT22;10591;52.532;13.348;2023-09-19T00:58:12;17.80;82.79
20862;DHT22;10591;52.532;13.348;2023-09-19T01:00:43;17.70;82.80
20862;DHT22;10591;52.532;13.348;2023-09-19T01:03:17;17.66;82.86
20862;DHT22;10591;52.532;13.348;2023-09-19T01:05:48;17.75;82.83
20862;DHT22;10591;52.532;13.348;2023-09-19T01:08:19;17.86;82.16
20862;DHT22;10591;52.532;13.348;2023-09-19T01:11:58;17.70;82.62
20862;DHT22;10591;52.532;13.348;2023-09-19T01:16:28;17.59;83.09
20862;DHT22;10591;52.532;13.348;2023-09-19T01:28:04;17.59;82.95
20862;DHT22;10591;52.532;13.348;2023-09-19T01:30:32;17.62;82.75
20862;DHT22;10591;52.532;13.348;2023-09-19T01:33:05;17.82;82.23
20862;DHT22;10591;52.532;13.348;2023-09-19T01:35:40;17.82;82.12
20862;DHT22;10591;52.532;13.348;2023-09-19T01:38:11;17.95;81.37
20862;DHT22;10591;52.532;13.348;2023-09-19T01:40:45;17.86;81.71
20862;DHT22;10591;52.532;13.348;2023-09-19T01:43:32;17.98;81.50
20862;DHT22;10591;52.532;13.348;2023-09-19T01:46:24;17.87;81.83
20862;DHT22;10591;52.532;13.348;2023-09-19T01:49:22;17.83;81.65
20862;DHT22;10591;52.532;13.348;2023-09-19T01:52:10;17.77;82.04
20862;DHT22;10591;52.532;13.348;2023-09-19T01:54:46;17.62;82.33
20862;DHT22;10591;52.532;13.348;2023-09-19T01:57:28;17.59;82.47
20862;DHT22;10591;52.532;13.348;2023-09-19T02:00:09;17.54;82.64
20862;DHT22;10591;52.532;13.348;2023-09-19T02:02:44;17.50;82.88
20862;DHT22;10591;52.532;13.348;2023-09-19T02:05:22;17.35;83.31
20862;DHT22;10591;52.532;13.348;2023-09-19T02:07:54;17.39;83.10
20862;DHT22;10591;52.532;13.348;2023-09-19T02:10:25;17.37;83.25
20862;DHT22;10591;52.532;13.348;2023-09-19T02:12:55;17.38;83.25
20862;DHT22;10591;52.532;13.348;2023-09-19T02:15:26;17.34;83.43
20862;DHT22;10591;52.532;13.348;2023-09-19T02:17:57;17.34;83.51
20862;DHT22;10591;52.532;13.348;2023-09-19T02:20:29;17.28;83.57
20862;DHT22;10591;52.532;13.348;2023-09-19T02:23:00;17.22;83.78
20862;DHT22;10591;52.532;13.348;2023-09-19T02:25:32;17.28;83.76
20862;DHT22;10591;52.532;13.348;2023-09-19T02:28:03;17.18;84.11
20862;DHT22;10591;52.532;13.348;2023-09-19T02:30:35;17.25;83.78
20862;DHT22;10591;52.532;13.348;2023-09-19T02:33:07;17.18;84.09
20862;DHT22;10591;52.532;13.348;2023-09-19T02:35:38;17.17;84.16
20862;DHT22;10591;52.532;13.348;2023-09-19T02:38:09;17.15;84.13
20862;DHT22;10591;52.532;13.348;2023-09-19T02:40:41;17.20;83.94
20862;DHT22;10591;52.532;13.348;2023-09-19T02:43:13;17.21;84.02
20862;DHT22;10591;52.532;13.348;2023-09-19T02:45:43;17.15;84.23
20862;DHT22;10591;52.532;13.348;2023-09-19T02:48:14;17.13;84.32
20862;DHT22;10591;52.532;13.348;2023-09-19T02:50:46;17.12;84.31
20862;DHT22;10591;52.532;13.348;2023-09-19T02:53:16;17.09;84.46
20862;DHT22;10591;52.532;13.348;2023-09-19T02:55:48;17.02;84.68
20862;DHT22;10591;52.532;13.348;2023-09-19T02:58:19;17.03;84.52
20862;DHT22;10591;52.532;13.348;2023-09-19T03:00:49;17.12;84.32
20862;DHT22;10591;52.532;13.348;2023-09-19T03:03:21;17.06;84.40
20862;DHT22;10591;52.532;13.348;2023-09-19T03:05:53;17.09;84.26
20862;DHT22;10591;52.532;13.348;2023-09-19T03:08:24;17.08;84.19
20862;DHT22;10591;52.532;13.348;2023-09-19T03:10:56;17.22;83.73
20862;DHT22;10591;52.532;13.348;2023-09-19T03:13:27;17.32;82.38
20862;DHT22;10591;52.532;13.348;2023-09-19T03:15:59;17.24;82.39
20862;DHT22;10591;52.532;13.348;2023-09-19T03:18:29;17.28;81.98
20862;DHT22;10591;52.532;13.348;2023-09-19T03:21:01;17.27;81.73
20862;DHT22;10591;52.532;13.348;2023-09-19T03:23:32;17.30;81.00
20862;DHT22;10591;52.532;13.348;2023-09-19T03:26:04;17.35;80.94
20862;DHT22;10591;52.532;13.348;2023-09-19T03:28:36;17.32;80.61
20862;DHT22;10591;52.532;13.348;2023-09-19T03:31:09;17.42;80.04
20862;DHT22;10591;52.532;13.348;2023-09-19T03:33:40;17.32;80.52
20862;DHT22;10591;52.532;13.348;2023-09-19T03:36:11;17.37;79.82
20862;DHT22;10591;52.532;13.348;2023-09-19T03:38:43;17.30;79.53
20862;DHT22;10591;52.532;13.348;2023-09-19T03:41:13;17.36;79.36
20862;DHT22;10591;52.532;13.348;2023-09-19T03:43:47;17.46;78.27
20862;DHT22;10591;52.532;13.348;2023-09-19T03:46:19;17.42;78.24
20862;DHT22;10591;52.532;13.348;2023-09-19T03:48:50;17.35;78.17
20862;DHT22;10591;52.532;13.348;2023-09-19T03:51:21;17.35;78.20
20862;DHT22;10591;52.532;13.348;2023-09-19T03:53:51;17.30;78.11
20862;DHT22;10591;52.532;13.348;2023-09-19T03:56:22;17.24;78.23
20862;DHT22;10591;52.532;13.348;2023-09-19T03:58:52;17.26;78.15
20862;DHT22;10591;52.532;13.348;2023-09-19T04:01:23;17.36;77.68
20862;DHT22;10591;52.532;13.348;2023-09-19T04:03:54;17.23;77.53
20862;DHT22;10591;52.532;13.348;2023-09-19T04:06:28;17.32;77.34
20862;DHT22;10591;52.532;13.348;2023-09-19T04:08:58;17.30;77.07
20862;DHT22;10591;52.532;13.348;2023-09-19T04:11:29;17.24;77.11
20862;DHT22;10591;52.532;13.348;2023-09-19T04:14:03;17.10;77.52
20862;DHT22;10591;52.532;13.348;2023-09-19T04:16:34;17.11;77.27
20862;DHT22;10591;52.532;13.348;2023-09-19T04:19:06;17.12;77.08
20862;DHT22;10591;52.532;13.348;2023-09-19T04:21:39;17.16;76.99
20862;DHT22;10591;52.532;13.348;2023-09-19T04:24:10;17.00;77.22
20862;DHT22;10591;52.532;13.348;2023-09-19T04:26:42;16.98;77.21
20862;DHT22;10591;52.532;13.348;2023-09-19T04:29:13;17.06;76.92
20862;DHT22;10591;52.532;13.348;2023-09-19T04:31:44;17.07;76.40
20862;DHT22;10591;52.532;13.348;2023-09-19T04:34:15;17.06;76.60
20862;DHT22;10591;52.532;13.348;2023-09-19T04:36:47;16.93;77.10
20862;DHT22;10591;52.532;13.348;2023-09-19T04:39:17;16.87;76.88
20862;DHT22;10591;52.532;13.348;2023-09-19T04:41:48;16.86;76.80
20862;DHT22;10591;52.532;13.348;2023-09-19T04:44:19;16.84;77.13
20862;DHT22;10591;52.532;13.348;2023-09-19T04:46:49;16.75;77.17
20862;DHT22;10591;52.532;13.348;2023-09-19T04:49:20;16.83;76.84
20862;DHT22;10591;52.532;13.348;2023-09-19T04:51:51;16.74;77.19
20862;DHT22;10591;52.532;13.348;2023-09-19T04:54:25;16.66;77.23
20862;DHT22;10591;52.532;13.348;2023-09-19T04:56:57;16.70;77.31
20862;DHT22;10591;52.532;13.348;2023-09-19T04:59:28;16.68;77.21
20862;DHT22;10591;52.532;13.348;2023-09-19T05:01:59;16.63;77.38
20862;DHT22;10591;52.532;13.348;2023-09-19T05:04:31;16.71;77.06
20862;DHT22;10591;52.532;13.348;2023-09-19T05:07:02;16.70;77.05
20862;DHT22;10591;52.532;13.348;2023-09-19T05:09:33;16.60;77.19
20862;DHT22;10591;52.532;13.348;2023-09-19T05:12:04;16.56;77.28
20862;DHT22;10591;52.532;13.348;2023-09-19T05:14:35;16.74;76.77
20862;DHT22;10591;52.532;13.348;2023-09-19T05:17:07;16.73;76.77
20862;DHT22;10591;52.532;13.348;2023-09-19T05:19:38;16.69;76.95
20862;DHT22;10591;52.532;13.348;2023-09-19T05:22:08;16.64;77.04
20862;DHT22;10591;52.532;13.348;2023-09-19T05:24:39;16.68;76.86
20862;DHT22;10591;52.532;13.348;2023-09-19T05:27:09;16.75;76.46
20862;DHT22;10591;52.532;13.348;2023-09-19T05:29:40;16.71;76.56
20862;DHT22;10591;52.532;13.348;2023-09-19T05:32:12;16.86;75.72
20862;DHT22;10591;52.532;13.348;2023-09-19T05:34:43;16.89;75.68
20862;DHT22;10591;52.532;13.348;2023-09-19T05:37:13;16.82;75.69
20862;DHT22;10591;52.532;13.348;2023-09-19T05:39:45;17.01;75.33
20862;DHT22;10591;52.532;13.348;2023-09-19T05:42:16;16.83;75.72
20862;DHT22;10591;52.532;13.348;2023-09-19T05:44:47;17.05;75.18
20862;DHT22;10591;52.532;13.348;2023-09-19T05:47:17;17.06;74.92
20862;DHT22;10591;52.532;13.348;2023-09-19T05:49:48;17.22;74.26
20862;DHT22;10591;52.532;13.348;2023-09-19T05:52:20;17.29;74.03
20862;DHT22;10591;52.532;13.348;2023-09-19T05:54:52;17.22;74.71
20862;DHT22;10591;52.532;13.348;2023-09-19T05:57:23;17.33;74.31
20862;DHT22;10591;52.532;13.348;2023-09-19T05:59:54;17.32;73.87
20862;DHT22;10591;52.532;13.348;2023-09-19T06:02:24;17.10;74.40
20862;DHT22;10591;52.532;13.348;2023-09-19T06:04:58;17.04;74.63
20862;DHT22;10591;52.532;13.348;2023-09-19T06:07:29;17.08;74.74
20862;DHT22;10591;52.532;13.348;2023-09-19T06:10:01;17.23;74.21
20862;DHT22;10591;52.532;13.348;2023-09-19T06:12:32;17.29;73.66
20862;DHT22;10591;52.532;13.348;2023-09-19T06:15:09;17.38;73.68
20862;DHT22;10591;52.532;13.348;2023-09-19T06:17:55;17.44;73.18
20862;DHT22;10591;52.532;13.348;2023-09-19T06:20:26;17.42;73.33
20862;DHT22;10591;52.532;13.348;2023-09-19T06:22:57;17.47;72.74
20862;DHT22;10591;52.532;13.348;2023-09-19T06:25:28;17.44;73.12
20862;DHT22;10591;52.532;13.348;2023-09-19T06:27:59;17.52;73.03
20862;DHT22;10591;52.532;13.348;2023-09-19T06:30:31;17.53;72.94
20862;DHT22;10591;52.532;13.348;2023-09-19T06:33:02;17.64;72.81
20862;DHT22;10591;52.532;13.348;2023-09-19T06:35:34;17.53;72.52
20862;DHT22;10591;52.532;13.348;2023-09-19T06:38:05;17.68;72.41
20862;DHT22;10591;52.532;13.348;2023-09-19T06:40:36;17.78;72.07
20862;DHT22;10591;52.532;13.348;2023-09-19T06:43:07;17.84;71.37
20862;DHT22;10591;52.532;13.348;2023-09-19T06:45:38;18.04;71.17
20862;DHT22;10591;52.532;13.348;2023-09-19T06:48:08;18.16;70.43
20862;DHT22;10591;52.532;13.348;2023-09-19T06:50:40;18.38;69.93
20862;DHT22;10591;52.532;13.348;2023-09-19T06:53:11;18.50;69.26
20862;DHT22;10591;52.532;13.348;2023-09-19T06:55:42;18.56;69.13
20862;DHT22;10591;52.532;13.348;2023-09-19T06:58:13;18.96;68.14
20862;DHT22;10591;52.532;13.348;2023-09-19T07:00:46;18.98;67.86
20862;DHT22;10591;52.532;13.348;2023-09-19T07:03:17;19.48;66.85
20862;DHT22;10591;52.532;13.348;2023-09-19T07:05:49;19.46;66.13
20862;DHT22;10591;52.532;13.348;2023-09-19T07:08:20;19.69;64.93
20862;DHT22;10591;52.532;13.348;2023-09-19T07:10:51;19.96;64.89
20862;DHT22;10591;52.532;13.348;2023-09-19T07:13:22;19.94;64.62
20862;DHT22;10591;52.532;13.348;2023-09-19T07:15:53;19.92;64.51
20862;DHT22;10591;52.532;13.348;2023-09-19T07:18:25;19.86;64.67
20862;DHT22;10591;52.532;13.348;2023-09-19T07:20:58;19.74;64.94
20862;DHT22;10591;52.532;13.348;2023-09-19T07:23:31;19.70;65.54
20862;DHT22;10591;52.532;13.348;2023-09-19T07:26:05;19.60;65.23
20862;DHT22;10591;52.532;13.348;2023-09-19T07:28:38;19.59;65.49
20862;DHT22;10591;52.532;13.348;2023-09-19T07:31:12;19.59;65.55
20862;DHT22;10591;52.532;13.348;2023-09-19T07:33:44;19.52;65.45
20862;DHT22;10591;52.532;13.348;2023-09-19T07:36:15;19.52;65.13
20862;DHT22;10591;52.532;13.348;2023-09-19T07:38:50;19.32;65.78
20862;DHT22;10591;52.532;13.348;2023-09-19T07:41:21;19.05;65.97
20862;DHT22;10591;52.532;13.348;2023-09-19T07:43:51;19.27;64.60
20862;DHT22;10591;52.532;13.348;2023-09-19T07:46:28;19.04;65.14
20862;DHT22;10591;52.532;13.348;2023-09-19T07:49:01;18.97;65.06
20862;DHT22;10591;52.532;13.348;2023-09-19T07:51:34;19.01;64.21
20862;DHT22;10591;52.532;13.348;2023-09-19T07:54:07;18.96;64.20
20862;DHT22;10591;52.532;13.348;2023-09-19T07:56:41;19.17;63.98
20862;DHT22;10591;52.532;13.348;2023-09-19T07:59:12;19.31;63.06
20862;DHT22;10591;52.532;13.348;2023-09-19T08:01:43;19.43;62.50
20862;DHT22;10591;52.532;13.348;2023-09-19T08:04:14;19.46;62.01
20862;DHT22;10591;52.532;13.348;2023-09-19T08:06:48;19.44;61.68
20862;DHT22;10591;52.532;13.348;2023-09-19T08:09:20;19.62;61.65
20862;DHT22;10591;52.532;13.348;2023-09-19T08:11:52;19.66;61.63
20862;DHT22;10591;52.532;13.348;2023-09-19T08:14:26;19.66;60.78
20862;DHT22;10591;52.532;13.348;2023-09-19T08:17:00;19.50;60.92
20862;DHT22;10591;52.532;13.348;2023-09-19T08:19:31;19.24;61.15
20862;DHT22;10591;52.532;13.348;2023-09-19T08:22:04;19.12;61.51
20862;DHT22;10591;52.532;13.348;2023-09-19T08:24:34;19.12;62.60
20862;DHT22;10591;52.532;13.348;2023-09-19T08:27:05;19.00;62.93
20862;DHT22;10591;52.532;13.348;2023-09-19T08:29:39;18.84;63.40
20862;DHT22;10591;52.532;13.348;2023-09-19T08:32:14;18.81;63.04
20862;DHT22;10591;52.532;13.348;2023-09-19T08:34:48;18.84;63.86
20862;DHT22;10591;52.532;13.348;2023-09-19T08:37:19;18.54;64.33
20862;DHT22;10591;52.532;13.348;2023-09-19T08:39:51;18.46;64.58
20862;DHT22;10591;52.532;13.348;2023-09-19T08:42:23;18.46;64.58
20862;DHT22;10591;52.532;13.348;2023-09-19T08:44:58;18.73;64.42
20862;DHT22;10591;52.532;13.348;2023-09-19T08:47:36;18.72;63.11
20862;DHT22;10591;52.532;13.348;2023-09-19T08:50:19;18.74;63.44
20862;DHT22;10591;52.532;13.348;2023-09-19T08:52:51;18.68;63.23
20862;DHT22;10591;52.532;13.348;2023-09-19T08:55:31;18.69;63.22
20862;DHT22;10591;52.532;13.348;2023-09-19T08:58:04;18.70;63.70
20862;DHT22;10591;52.532;13.348;2023-09-19T09:00:36;18.96;62.92
20862;DHT22;10591;52.532;13.348;2023-09-19T09:03:09;18.74;62.86
20862;DHT22;10591;52.532;13.348;2023-09-19T09:05:43;18.76;63.47
20862;DHT22;10591;52.532;13.348;2023-09-19T09:08:19;18.97;62.25
20862;DHT22;10591;52.532;13.348;2023-09-19T09:10:51;19.16;61.87
20862;DHT22;10591;52.532;13.348;2023-09-19T09:13:22;19.34;61.31
20862;DHT22;10591;52.532;13.348;2023-09-19T09:15:54;19.36;60.87
20862;DHT22;10591;52.532;13.348;2023-09-19T09:18:28;19.62;60.61
20862;DHT22;10591;52.532;13.348;2023-09-19T09:21:00;19.62;59.67
20862;DHT22;10591;52.532;13.348;2023-09-19T09:23:31;19.73;59.17
20862;DHT22;10591;52.532;13.348;2023-09-19T09:26:02;19.61;58.49
20862;DHT22;10591;52.532;13.348;2023-09-19T09:28:34;20.08;57.78
20862;DHT22;10591;52.532;13.348;2023-09-19T09:31:11;20.30;56.75
20862;DHT22;10591;52.532;13.348;2023-09-19T09:33:51;20.39;56.82
20862;DHT22;10591;52.532;13.348;2023-09-19T09:36:32;20.02;56.98
20862;DHT22;10591;52.532;13.348;2023-09-19T09:38:51;20.03;57.44
20862;DHT22;10591;52.532;13.348;2023-09-19T09:41:35;19.77;57.45
20862;DHT22;10591;52.532;13.348;2023-09-19T09:44:06;19.78;57.34
20862;DHT22;10591;52.532;13.348;2023-09-19T09:46:34;20.09;57.08
20862;DHT22;10591;52.532;13.348;2023-09-19T09:49:26;20.07;56.81
20862;DHT22;10591;52.532;13.348;2023-09-19T09:52:06;20.18;55.94
20862;DHT22;10591;52.532;13.348;2023-09-19T09:55:01;20.08;55.92
20862;DHT22;10591;52.532;13.348;2023-09-19T09:57:37;20.22;56.19
20862;DHT22;10591;52.532;13.348;2023-09-19T10:00:11;19.98;55.42
20862;DHT22;10591;52.532;13.348;2023-09-19T10:02:44;19.92;54.76
20862;DHT22;10591;52.532;13.348;2023-09-19T10:05:20;20.18;54.34
20862;DHT22;10591;52.532;13.348;2023-09-19T10:07:52;20.42;54.25
20862;DHT22;10591;52.532;13.348;2023-09-19T10:10:32;20.65;53.57
20862;DHT22;10591;52.532;13.348;2023-09-19T10:13:14;20.89;52.04
20862;DHT22;10591;52.532;13.348;2023-09-19T10:15:50;20.64;52.16
20862;DHT22;10591;52.532;13.348;2023-09-19T10:18:27;20.74;50.92
20862;DHT22;10591;52.532;13.348;2023-09-19T10:21:02;20.68;50.53
20862;DHT22;10591;52.532;13.348;2023-09-19T10:23:36;20.46;50.56
20862;DHT22;10591;52.532;13.348;2023-09-19T10:26:07;20.98;49.87
20862;DHT22;10591;52.532;13.348;2023-09-19T10:28:39;21.03;50.60
20862;DHT22;10591;52.532;13.348;2023-09-19T10:31:12;20.63;51.21
20862;DHT22;10591;52.532;13.348;2023-09-19T10:33:44;20.68;50.81
20862;DHT22;10591;52.532;13.348;2023-09-19T10:36:18;20.55;50.54
20862;DHT22;10591;52.532;13.348;2023-09-19T10:38:51;20.46;51.44
20862;DHT22;10591;52.532;13.348;2023-09-19T10:41:25;20.59;51.46
20862;DHT22;10591;52.532;13.348;2023-09-19T10:44:03;20.20;52.29
20862;DHT22;10591;52.532;13.348;2023-09-19T10:46:37;20.16;52.03
20862;DHT22;10591;52.532;13.348;2023-09-19T10:49:10;19.92;50.93
20862;DHT22;10591;52.532;13.348;2023-09-19T10:51:42;19.87;51.30
20862;DHT22;10591;52.532;13.348;2023-09-19T10:54:20;20.05;50.51
20862;DHT22;10591;52.532;13.348;2023-09-19T10:56:54;20.05;49.49
20862;DHT22;10591;52.532;13.348;2023-09-19T10:59:27;20.19;49.13
20862;DHT22;10591;52.532;13.348;2023-09-19T11:02:17;20.33;48.70
20862;DHT22;10591;52.532;13.348;2023-09-19T11:04:50;20.54;48.73
20862;DHT22;10591;52.532;13.348;2023-09-19T11:07:20;20.63;48.16
20862;DHT22;10591;52.532;13.348;2023-09-19T11:09:52;20.71;47.82
20862;DHT22;10591;52.532;13.348;2023-09-19T11:15:08;20.70;47.88
20862;DHT22;10591;52.532;13.348;2023-09-19T11:17:44;20.53;48.31
20862;DHT22;10591;52.532;13.348;2023-09-19T11:20:23;20.62;47.90
20862;DHT22;10591;52.532;13.348;2023-09-19T11:25:50;20.93;47.62
20862;DHT22;10591;52.532;13.348;2023-09-19T11:28:29;20.84;47.45
20862;DHT22;10591;52.532;13.348;2023-09-19T11:31:41;20.80;48.22
20862;DHT22;10591;52.532;13.348;2023-09-19T11:33:39;20.66;48.36
20862;DHT22;10591;52.532;13.348;2023-09-19T11:36:15;20.56;48.64
20862;DHT22;10591;52.532;13.348;2023-09-19T11:49:35;20.92;46.07
20862;DHT22;10591;52.532;13.348;2023-09-19T11:52:05;21.12;46.55
20862;DHT22;10591;52.532;13.348;2023-09-19T11:54:38;20.86;47.48
20862;DHT22;10591;52.532;13.348;2023-09-19T11:57:14;20.84;47.16
20862;DHT22;10591;52.532;13.348;2023-09-19T11:59:48;20.70;47.98
20862;DHT22;10591;52.532;13.348;2023-09-19T12:02:42;20.85;47.61
20862;DHT22;10591;52.532;13.348;2023-09-19T12:05:08;20.96;47.50
20862;DHT22;10591;52.532;13.348;2023-09-19T12:07:43;20.86;47.42
20862;DHT22;10591;52.532;13.348;2023-09-19T12:10:17;21.06;47.29
20862;DHT22;10591;52.532;13.348;2023-09-19T12:12:50;20.75;46.89
20862;DHT22;10591;52.532;13.348;2023-09-19T12:15:26;20.84;46.64
20862;DHT22;10591;52.532;13.348;2023-09-19T12:18:00;20.76;46.15
20862;DHT22;10591;52.532;13.348;2023-09-19T12:20:44;21.05;45.50
20862;DHT22;10591;52.532;13.348;2023-09-19T12:23:19;21.20;45.03
20862;DHT22;10591;52.532;13.348;2023-09-19T12:25:50;21.32;44.95
20862;DHT22;10591;52.532;13.348;2023-09-19T12:28:27;21.21;44.68
20862;DHT22;10591;52.532;13.348;2023-09-19T12:31:08;21.41;45.09
20862;DHT22;10591;52.532;13.348;2023-09-19T12:33:39;21.62;43.87
20862;DHT22;10591;52.532;13.348;2023-09-19T12:36:23;21.36;44.10
20862;DHT22;10591;52.532;13.348;2023-09-19T12:38:55;21.46;44.14
20862;DHT22;10591;52.532;13.348;2023-09-19T12:41:27;21.53;44.51
20862;DHT22;10591;52.532;13.348;2023-09-19T12:43:58;21.58;44.39
20862;DHT22;10591;52.532;13.348;2023-09-19T12:46:31;21.48;44.28
20862;DHT22;10591;52.532;13.348;2023-09-19T12:49:17;21.54;44.38
20862;DHT22;10591;52.532;13.348;2023-09-19T12:51:48;21.52;45.03
20862;DHT22;10591;52.532;13.348;2023-09-19T12:54:19;21.51;45.00
20862;DHT22;10591;52.532;13.348;2023-09-19T12:56:51;21.47;45.06
20862;DHT22;10591;52.532;13.348;2023-09-19T12:59:29;21.34;44.78
20862;DHT22;10591;52.532;13.348;2023-09-19T13:02:05;21.28;45.30
20862;DHT22;10591;52.532;13.348;2023-09-19T13:04:38;21.40;45.12
20862;DHT22;10591;52.532;13.348;2023-09-19T13:07:39;21.28;45.04
20862;DHT22;10591;52.532;13.348;2023-09-19T13:10:02;21.36;45.60
20862;DHT22;10591;52.532;13.348;2023-09-19T13:12:38;21.30;45.50
20862;DHT22;10591;52.532;13.348;2023-09-19T13:15:12;21.56;45.30
20862;DHT22;10591;52.532;13.348;2023-09-19T13:17:47;21.51;45.33
20862;DHT22;10591;52.532;13.348;2023-09-19T13:20:28;21.38;44.82
20862;DHT22;10591;52.532;13.348;2023-09-19T13:22:57;21.25;44.42
20862;DHT22;10591;52.532;13.348;2023-09-19T13:25:31;21.41;44.30
20862;DHT22;10591;52.532;13.348;2023-09-19T13:28:05;21.29;44.68
20862;DHT22;10591;52.532;13.348;2023-09-19T13:30:37;21.25;45.33
20862;DHT22;10591;52.532;13.348;2023-09-19T13:33:11;21.26;45.13
20862;DHT22;10591;52.532;13.348;2023-09-19T13:35:46;21.24;45.82
20862;DHT22;10591;52.532;13.348;2023-09-19T13:38:17;21.12;46.23
20862;DHT22;10591;52.532;13.348;2023-09-19T13:40:50;21.02;45.83
20862;DHT22;10591;52.532;13.348;2023-09-19T13:43:23;21.20;45.58
20862;DHT22;10591;52.532;13.348;2023-09-19T13:45:54;21.14;46.23
20862;DHT22;10591;52.532;13.348;2023-09-19T13:48:27;21.34;45.73
20862;DHT22;10591;52.532;13.348;2023-09-19T13:50:59;21.33;46.48
20862;DHT22;10591;52.532;13.348;2023-09-19T13:53:31;21.34;45.70
20862;DHT22;10591;52.532;13.348;2023-09-19T13:56:02;21.20;45.46
20862;DHT22;10591;52.532;13.348;2023-09-19T13:58:33;21.53;48.38
20862;DHT22;10591;52.532;13.348;2023-09-19T14:01:03;21.81;50.32
20862;DHT22;10591;52.532;13.348;2023-09-19T14:03:34;21.94;46.87
20862;DHT22;10591;52.532;13.348;2023-09-19T14:06:06;21.90;46.84
20862;DHT22;10591;52.532;13.348;2023-09-19T14:08:39;21.73;46.30
20862;DHT22;10591;52.532;13.348;2023-09-19T14:11:15;21.56;45.89
20862;DHT22;10591;52.532;13.348;2023-09-19T14:13:47;21.50;46.27
20862;DHT22;10591;52.532;13.348;2023-09-19T14:16:23;21.52;47.98
20862;DHT22;10591;52.532;13.348;2023-09-19T14:18:56;21.86;46.96
20862;DHT22;10591;52.532;13.348;2023-09-19T14:21:33;21.65;46.19
20862;DHT22;10591;52.532;13.348;2023-09-19T14:24:06;21.77;46.50
20862;DHT22;10591;52.532;13.348;2023-09-19T14:26:39;21.82;46.41
20862;DHT22;10591;52.532;13.348;2023-09-19T14:29:09;21.51;47.92
20862;DHT22;10591;52.532;13.348;2023-09-19T14:31:42;21.56;48.15
20862;DHT22;10591;52.532;13.348;2023-09-19T14:34:15;21.45;47.49
20862;DHT22;10591;52.532;13.348;2023-09-19T14:36:46;21.40;47.94
20862;DHT22;10591;52.532;13.348;2023-09-19T14:39:19;21.47;48.78
20862;DHT22;10591;52.532;13.348;2023-09-19T14:41:52;21.35;47.93
20862;DHT22;10591;52.532;13.348;2023-09-19T14:44:22;21.32;48.25
20862;DHT22;10591;52.532;13.348;2023-09-19T14:46:55;21.24;47.40
20862;DHT22;10591;52.532;13.348;2023-09-19T14:49:26;21.08;47.90
20862;DHT22;10591;52.532;13.348;2023-09-19T14:52:01;21.20;47.30
20862;DHT22;10591;52.532;13.348;2023-09-19T14:54:37;21.16;47.84
20862;DHT22;10591;52.532;13.348;2023-09-19T14:57:10;21.18;47.69
20862;DHT22;10591;52.532;13.348;2023-09-19T14:59:42;21.31;48.28
20862;DHT22;10591;52.532;13.348;2023-09-19T15:02:15;21.35;48.54
20862;DHT22;10591;52.532;13.348;2023-09-19T15:04:48;21.10;47.96
20862;DHT22;10591;52.532;13.348;2023-09-19T15:07:20;21.16;48.46
20862;DHT22;10591;52.532;13.348;2023-09-19T15:09:51;21.20;51.42
20862;DHT22;10591;52.532;13.348;2023-09-19T15:12:21;20.96;50.44
20862;DHT22;10591;52.532;13.348;2023-09-19T15:14:52;21.03;50.61
20862;DHT22;10591;52.532;13.348;2023-09-19T15:17:24;21.05;52.28
20862;DHT22;10591;52.532;13.348;2023-09-19T15:19:58;20.94;49.04
20862;DHT22;10591;52.532;13.348;2023-09-19T15:22:36;20.97;48.52
20862;DHT22;10591;52.532;13.348;2023-09-19T15:25:09;20.86;49.18
20862;DHT22;10591;52.532;13.348;2023-09-19T15:27:42;20.93;49.26
20862;DHT22;10591;52.532;13.348;2023-09-19T15:30:14;20.98;51.16
20862;DHT22;10591;52.532;13.348;2023-09-19T15:32:45;21.03;51.11
20862;DHT22;10591;52.532;13.348;2023-09-19T15:35:17;20.93;51.19
20862;DHT22;10591;52.532;13.348;2023-09-19T15:37:48;20.86;49.95
20862;DHT22;10591;52.532;13.348;2023-09-19T15:40:21;20.86;50.27
20862;DHT22;10591;52.532;13.348;2023-09-19T15:42:55;20.92;52.13
20862;DHT22;10591;52.532;13.348;2023-09-19T15:45:30;20.78;49.52
20862;DHT22;10591;52.532;13.348;2023-09-19T15:48:00;20.74;50.22
20862;DHT22;10591;52.532;13.348;2023-09-19T15:50:32;20.79;51.14
20862;DHT22;10591;52.532;13.348;2023-09-19T15:53:04;20.74;51.42
20862;DHT22;10591;52.532;13.348;2023-09-19T15:55:41;20.90;51.57
20862;DHT22;10591;52.532;13.348;2023-09-19T15:58:13;20.76;50.35
20862;DHT22;10591;52.532;13.348;2023-09-19T16:00:45;20.83;50.99
20862;DHT22;10591;52.532;13.348;2023-09-19T16:03:18;20.82;50.08
20862;DHT22;10591;52.532;13.348;2023-09-19T16:05:50;20.75;49.17
20862;DHT22;10591;52.532;13.348;2023-09-19T16:08:20;20.56;52.81
20862;DHT22;10591;52.532;13.348;2023-09-19T16:10:51;20.54;52.31
20862;DHT22;10591;52.532;13.348;2023-09-19T16:13:22;20.59;51.90
20862;DHT22;10591;52.532;13.348;2023-09-19T16:15:56;20.55;51.61
20862;DHT22;10591;52.532;13.348;2023-09-19T16:18:27;20.62;50.93
20862;DHT22;10591;52.532;13.348;2023-09-19T16:21:02;20.43;51.50